CheckWX is a tool to help pilots better visualize weather data.  It is not intended as a substitute for an official pre-flight weather briefing.

01:33:56 UTC

KLSV METAR
Nellis AFB Airport
Las Vegas, Nevada, USA
Current

36 mins ago

KLSV 280058Z AUTO 10009KT 10SM CLR 41/00 A2974 RMK AO2 SLP044 T04051002 $
Observed
May-28 @ 00:58 UTC
Wind
  • 100° at 9 KTS
Visibility
Flight Rules
VFR
Cloud Levels
  • Clear skies
Temperature
40°C / 104°F
Dewpoint
C / 32°F
Humidity
8%
Altimeter
29.74" Hg
Pressure
1007.12 hPa
Previous

2 hours ago

KLSV 272358Z AUTO 17004KT 10SM CLR 41/00 A2975 RMK AO2 SLPNO T04061001 10408 20352 57021 $
Observed
May-27 @ 23:58 UTC
Wind
  • 170° at 4 KTS
Visibility
Flight Rules
VFR
Cloud Levels
  • Clear skies
Temperature
41°C / 106°F
Dewpoint
C / 32°F
Humidity
8%
Altimeter
29.75" Hg
Pressure
1007.42 hPa
Previous

3 hours ago

KLSV 272258Z AUTO 17005G16KT 10SM CLR 40/00 A2977 RMK AO2 SLPNO T04041002 $
Observed
May-27 @ 22:58 UTC
Wind
  • 170° at 5 KTS
  • Gusting to 16 KTS
Visibility
Flight Rules
VFR
Cloud Levels
  • Clear skies
Temperature
40°C / 104°F
Dewpoint
C / 32°F
Humidity
8%
Altimeter
29.77" Hg
Pressure
1008.12 hPa